Time;durP1;ratioP1;P1;durP2;ratioP2;P2;SDS_P1;SDS_P2;PMS_P1;PMS_P2;Temp;Humidity;BMP_temperature;BMP_pressure;BME280_temperature;BME280_humidity;BME280_pressure;Samples;Min_cycle;Max_cycle;Signal;HPM_P1;HPM_P2
2021/05/28 00:01:25;;;;;;;4.80;3.20;;;9.60;99.90;;;10.54;100.00;98683.22;5066640;28;20741;-82
2021/05/28 00:03:53;;;;;;;4.00;3.20;;;9.70;99.90;;;10.60;100.00;98681.69;5066041;28;20793;-81
2021/05/28 00:06:21;;;;;;;4.70;2.90;;;9.80;99.90;;;10.62;100.00;98681.53;5064986;28;20808;-81
2021/05/28 00:08:50;;;;;;;5.27;2.80;;;9.90;99.90;;;10.59;100.00;98678.25;5064432;28;20436;-82
2021/05/28 00:11:18;;;;;;;3.73;3.33;;;9.80;99.90;;;10.44;100.00;98681.78;5062237;28;21014;-82
2021/05/28 00:13:46;;;;;;;7.87;3.47;;;9.60;99.90;;;10.51;100.00;98680.94;5064025;28;20541;-82
2021/05/28 00:16:14;;;;;;;9.10;3.90;;;9.70;99.90;;;10.55;100.00;98679.59;5067302;28;20502;-81
2021/05/28 00:18:42;;;;;;;8.83;2.90;;;9.70;99.90;;;10.54;100.00;98674.53;5066172;28;20500;-81
2021/05/28 00:21:10;;;;;;;8.10;2.90;;;9.70;99.90;;;10.39;100.00;98682.28;5063659;28;20992;-81
2021/05/28 00:23:38;;;;;;;5.60;2.63;;;9.50;99.90;;;10.29;100.00;98675.63;5060828;28;20460;-81
2021/05/28 00:26:08;;;;;;;6.07;2.97;;;9.40;99.90;;;10.41;100.00;98667.22;5064148;28;20457;-82
2021/05/28 00:28:36;;;;;;;5.47;2.73;;;9.60;99.90;;;10.43;100.00;98674.91;5060447;28;20456;-82
2021/05/28 00:31:07;;;;;;;4.13;3.20;;;9.60;99.90;;;10.47;100.00;98674.41;5061665;28;20464;-82
2021/05/28 00:33:35;;;;;;;4.80;3.07;;;9.80;99.90;;;10.46;100.00;98683.22;5062120;28;20487;-81
2021/05/28 00:36:03;;;;;;;3.23;2.93;;;9.70;99.90;;;10.39;100.00;98686.69;5062515;28;21037;-81
2021/05/28 00:38:31;;;;;;;3.63;2.97;;;9.50;99.90;;;10.36;100.00;98676.56;5066048;28;20488;-82
2021/05/28 00:40:59;;;;;;;4.47;2.90;;;9.50;99.90;;;10.17;100.00;98685.63;5065259;28;20460;-81
2021/05/28 00:43:28;;;;;;;6.63;3.57;;;9.30;99.90;;;9.99;100.00;98685.00;5061620;28;20469;-82
2021/05/28 00:45:57;;;;;;;5.00;2.57;;;9.00;99.90;;;10.02;100.00;98684.69;5061324;28;20871;-81
2021/05/28 00:48:25;;;;;;;8.83;3.23;;;9.10;99.90;;;10.01;100.00;98685.66;5066634;28;20893;-81
2021/05/28 00:50:53;;;;;;;4.87;3.20;;;9.10;99.90;;;9.96;100.00;98674.91;5064784;28;20468;-81
2021/05/28 00:53:22;;;;;;;2.50;2.30;;;9.00;99.90;;;9.79;100.00;98673.31;5063491;28;20516;-82
2021/05/28 00:55:52;;;;;;;4.53;3.57;;;8.80;99.90;;;9.82;100.00;98679.00;5067040;28;21371;-82
2021/05/28 00:58:20;;;;;;;4.40;3.27;;;8.90;99.90;;;9.75;100.00;98685.06;5066050;28;20492;-82
2021/05/28 01:00:50;;;;;;;6.73;3.43;;;8.80;99.90;;;9.60;100.00;98679.69;5064706;28;20468;-81
2021/05/28 01:03:18;;;;;;;5.60;3.10;;;8.70;99.90;;;9.40;100.00;98679.22;5066819;28;20463;-81
2021/05/28 01:05:47;;;;;;;3.80;2.97;;;8.40;99.90;;;9.37;100.00;98679.53;5054719;28;20456;-82
2021/05/28 01:08:16;;;;;;;4.83;2.77;;;8.50;99.90;;;9.42;100.00;98673.81;5069528;28;20506;-81
2021/05/28 01:10:44;;;;;;;5.60;2.70;;;8.50;99.90;;;9.37;100.00;98689.97;5066085;28;20538;-81
2021/05/28 01:13:12;;;;;;;4.77;2.80;;;8.40;99.90;;;9.25;100.00;98680.84;5068067;28;20486;-81
2021/05/28 01:15:41;;;;;;;7.40;4.13;;;8.30;99.90;;;9.26;100.00;98687.72;5065504;28;20463;-81
2021/05/28 01:18:11;;;;;;;6.37;2.83;;;8.30;99.90;;;9.33;100.00;98687.88;5069328;28;20489;-81
2021/05/28 01:20:39;;;;;;;4.20;3.10;;;8.40;99.90;;;9.34;100.00;98694.69;5067302;28;20498;-81
2021/05/28 01:23:09;;;;;;;4.17;3.00;;;8.40;99.90;;;9.19;100.00;98691.94;5064166;28;20469;-81
2021/05/28 01:25:37;;;;;;;6.20;2.90;;;8.20;99.90;;;9.20;100.00;98690.94;5065396;28;20460;-82
2021/05/28 01:28:05;;;;;;;5.23;3.33;;;8.30;99.90;;;9.19;100.00;98697.16;5064452;28;20938;-81
2021/05/28 01:30:33;;;;;;;7.57;3.10;;;8.30;99.90;;;9.04;100.00;98689.16;5063679;28;20881;-81
2021/05/28 01:33:02;;;;;;;3.20;2.67;;;8.10;99.90;;;8.96;100.00;98699.56;5065883;28;20485;-81
2021/05/28 01:35:30;;;;;;;4.30;3.20;;;8.00;99.90;;;8.98;100.00;98694.19;5065440;28;20452;-81
2021/05/28 01:37:58;;;;;;;3.50;2.67;;;8.10;99.90;;;8.98;100.00;98696.81;5066570;28;20541;-81
2021/05/28 01:40:27;;;;;;;6.97;3.23;;;8.10;99.90;;;8.73;100.00;98706.38;5064237;28;20521;-81
2021/05/28 01:42:56;;;;;;;5.37;2.43;;;7.80;99.90;;;8.81;100.00;98705.56;5067311;28;20510;-81
2021/05/28 01:45:24;;;;;;;9.67;3.97;;;7.90;99.90;;;8.82;100.00;98708.00;5059845;28;20535;-81
2021/05/28 01:47:53;;;;;;;5.57;2.73;;;7.90;99.90;;;8.77;100.00;98707.69;5068080;28;20447;-81
2021/05/28 01:50:21;;;;;;;5.87;3.10;;;7.80;99.90;;;8.77;100.00;98712.91;5063310;28;20788;-81
2021/05/28 01:52:49;;;;;;;7.40;3.60;;;7.90;99.90;;;8.80;100.00;98720.41;5067042;28;20463;-81
2021/05/28 01:55:17;;;;;;;6.63;3.03;;;7.80;99.90;;;8.76;100.00;98720.88;5067008;28;20492;-81
2021/05/28 01:57:46;;;;;;;9.70;3.20;;;7.80;99.90;;;8.72;100.00;98724.75;5062142;28;20906;-81
2021/05/28 02:00:17;;;;;;;8.10;2.90;;;7.80;99.90;;;8.70;100.00;98727.53;5062684;28;20511;-81
2021/05/28 02:02:45;;;;;;;5.67;3.27;;;7.70;99.90;;;8.58;100.00;98724.41;5064706;28;20467;-81
2021/05/28 02:05:13;;;;;;;4.17;2.97;;;7.60;99.90;;;8.59;100.00;98736.47;5067897;28;20944;-81
2021/05/28 02:07:42;;;;;;;10.50;3.30;;;7.60;99.90;;;8.58;100.00;98723.56;5065490;28;20472;-81
2021/05/28 02:10:11;;;;;;;7.30;3.70;;;7.60;99.90;;;8.52;100.00;98717.22;5068650;28;20784;-81
2021/05/28 02:12:39;;;;;;;5.20;3.70;;;7.60;99.90;;;8.35;100.00;98715.53;5063843;28;20848;-81
2021/05/28 02:15:10;;;;;;;10.67;3.57;;;7.40;99.90;;;8.40;100.00;98718.47;5064160;28;20468;-81
2021/05/28 02:17:38;;;;;;;8.80;3.27;;;7.40;99.90;;;8.37;100.00;98721.38;5063216;28;20468;-82
2021/05/28 02:20:08;;;;;;;6.60;3.40;;;7.40;99.90;;;8.34;100.00;98720.88;5066827;28;20553;-81
2021/05/28 02:22:36;;;;;;;7.23;2.87;;;7.40;99.90;;;8.38;100.00;98725.63;5067500;28;20456;-82
2021/05/28 02:25:07;;;;;;;18.63;4.57;;;7.40;99.90;;;8.32;100.00;98720.22;5066805;28;20529;-82
2021/05/28 02:27:36;;;;;;;5.07;3.30;;;7.40;99.90;;;8.30;100.00;98720.38;5060970;28;21006;-81
2021/05/28 02:30:06;;;;;;;8.80;3.77;;;7.40;99.90;;;8.24;100.00;98718.38;5066633;28;20468;-81
2021/05/28 02:32:35;;;;;;;6.57;3.30;;;7.30;99.90;;;8.25;100.00;98716.59;5066561;28;20472;-81
2021/05/28 02:35:05;;;;;;;3.13;2.63;;;7.30;99.90;;;8.26;100.00;98726.81;5065999;28;20964;-81
2021/05/28 02:37:33;;;;;;;5.00;3.70;;;7.40;99.90;;;8.22;100.00;98716.91;5059376;28;20452;-81
2021/05/28 02:40:01;;;;;;;4.43;3.10;;;7.30;99.90;;;8.11;100.00;98725.78;5064601;28;20492;-81
2021/05/28 02:42:30;;;;;;;4.80;3.20;;;7.20;99.90;;;8.10;100.00;98719.75;5064762;28;20825;-81
2021/05/28 02:44:58;;;;;;;4.07;3.17;;;7.10;99.90;;;8.00;100.00;98728.66;5061624;28;20806;-81
2021/05/28 02:47:26;;;;;;;6.43;3.50;;;7.10;99.90;;;7.93;100.00;98727.63;5064511;28;20460;-81
2021/05/28 02:49:56;;;;;;;5.50;3.27;;;6.90;99.90;;;7.98;100.00;98728.78;5065283;28;20556;-81
2021/05/28 02:52:24;;;;;;;16.33;3.50;;;7.10;99.90;;;7.97;100.00;98739.38;5064521;28;20465;-81
2021/05/28 02:54:52;;;;;;;6.20;3.40;;;7.00;99.90;;;7.97;100.00;98739.38;5059818;28;20967;-81
2021/05/28 02:57:20;;;;;;;6.43;3.47;;;7.00;99.90;;;7.99;100.00;98743.44;5063753;28;20456;-81
2021/05/28 02:59:48;;;;;;;4.07;3.50;;;7.00;99.90;;;7.98;100.00;98731.41;5061659;28;20497;-81
2021/05/28 03:02:18;;;;;;;10.83;3.50;;;7.00;99.90;;;7.98;100.00;98736.59;5067201;28;20459;-81
2021/05/28 03:04:46;;;;;;;3.93;3.00;;;7.10;99.90;;;7.86;100.00;98737.03;5062146;28;20468;-81
2021/05/28 03:07:15;;;;;;;4.80;3.70;;;6.90;99.90;;;7.83;100.00;98726.91;5063933;28;20529;-80
2021/05/28 03:09:44;;;;;;;7.37;3.43;;;7.00;99.90;;;7.80;100.00;98732.44;5065637;28;20523;-81
2021/05/28 03:12:13;;;;;;;8.13;5.30;;;6.90;99.90;;;7.87;100.00;98730.84;5064969;28;20979;-81
2021/05/28 03:14:42;;;;;;;5.63;4.17;;;7.00;99.90;;;7.84;100.00;98731.16;5064324;28;20460;-81
2021/05/28 03:17:10;;;;;;;6.03;4.60;;;6.90;99.90;;;7.72;100.00;98732.38;5062646;28;21062;-81
2021/05/28 03:19:44;;;;;;;6.93;4.10;;;6.80;99.90;;;7.67;100.00;98735.41;5062763;28;20910;-81
2021/05/28 03:22:31;;;;;;;6.10;3.67;;;6.70;99.90;;;7.71;100.00;98722.91;5064939;28;20460;-81
2021/05/28 03:25:02;;;;;;;9.23;4.27;;;6.80;99.90;;;7.61;100.00;98725.63;5060269;28;20471;-81
2021/05/28 03:27:30;;;;;;;5.77;4.00;;;6.60;99.90;;;7.59;100.00;98733.59;5066126;28;20453;-82
2021/05/28 03:29:58;;;;;;;10.60;4.40;;;6.60;99.90;;;7.61;100.00;98736.03;5063936;28;20518;-81
2021/05/28 03:32:26;;;;;;;7.50;3.47;;;6.60;99.90;;;7.55;100.00;98734.84;5062435;28;20464;-81
2021/05/28 03:34:56;;;;;;;10.70;3.60;;;6.60;99.90;;;7.64;100.00;98737.50;5059481;28;20449;-81
2021/05/28 03:37:26;;;;;;;10.93;4.30;;;6.80;99.90;;;7.66;100.00;98740.78;5061689;28;20460;-84
2021/05/28 03:39:54;;;;;;;6.63;4.07;;;6.70;99.90;;;7.60;100.00;98740.41;5062790;28;20642;-81
2021/05/28 03:42:22;;;;;;;6.10;4.17;;;6.60;99.90;;;7.64;100.00;98751.34;5060641;28;20806;-81
2021/05/28 03:44:50;;;;;;;4.80;4.20;;;6.70;99.90;;;7.74;100.00;98746.06;5064249;28;20468;-81
2021/05/28 03:47:20;;;;;;;4.97;4.30;;;6.80;99.90;;;7.81;100.00;98745.28;5060437;28;20448;-82
2021/05/28 03:49:48;;;;;;;10.30;3.40;;;6.90;99.90;;;7.75;100.00;98748.50;5061415;28;20806;-82
2021/05/28 03:52:16;;;;;;;4.40;3.60;;;6.80;99.90;;;7.81;100.00;98736.69;5059347;28;20503;-82
2021/05/28 03:54:47;;;;;;;6.90;3.70;;;6.90;99.90;;;7.77;100.00;98733.56;5067125;28;20551;-82
2021/05/28 03:57:15;;;;;;;5.77;3.43;;;6.90;99.90;;;7.71;100.00;98741.97;5064859;28;20476;-81
2021/05/28 03:59:44;;;;;;;5.20;3.60;;;6.80;99.90;;;7.66;100.00;98735.59;5067365;28;20491;-81
2021/05/28 04:02:13;;;;;;;5.83;3.43;;;6.70;99.90;;;7.48;100.00;98733.81;5065048;28;20844;-82
2021/05/28 04:04:42;;;;;;;4.23;3.27;;;6.60;99.90;;;7.47;100.00;98741.75;5063094;28;20535;-81
2021/05/28 04:07:10;;;;;;;7.13;3.57;;;6.50;99.90;;;7.55;100.00;98740.06;5059371;28;20467;-80
2021/05/28 04:09:38;;;;;;;5.27;3.80;;;6.60;99.90;;;7.43;100.00;98743.84;5067560;28;20447;-81
2021/05/28 04:12:08;;;;;;;10.03;4.10;;;6.50;99.90;;;7.44;100.00;98750.69;5068854;28;20499;-80
2021/05/28 04:14:36;;;;;;;5.37;4.17;;;6.50;99.90;;;7.53;100.00;98755.00;5064348;28;20832;-80
2021/05/28 04:17:04;;;;;;;4.00;3.37;;;6.60;99.90;;;7.65;100.00;98745.16;5068119;28;20447;-80
2021/05/28 04:19:32;;;;;;;10.83;4.20;;;6.80;99.90;;;7.70;100.00;98748.16;5067881;28;20503;-81
2021/05/28 04:22:01;;;;;;;7.50;5.03;;;6.80;99.90;;;7.70;100.00;98742.94;5065900;28;20486;-82
2021/05/28 04:24:29;;;;;;;7.07;4.20;;;6.90;99.90;;;7.75;100.00;98750.28;5065364;28;20440;-80
2021/05/28 04:26:57;;;;;;;5.27;3.73;;;7.00;99.90;;;7.75;100.00;98750.28;5066930;28;21035;-80
2021/05/28 04:29:26;;;;;;;8.00;4.70;;;6.90;99.90;;;7.80;100.00;98748.88;5067545;28;20464;-80
2021/05/28 04:31:54;;;;;;;6.83;4.37;;;6.90;99.90;;;7.84;100.00;98749.38;5071572;28;20448;-80
2021/05/28 04:34:23;;;;;;;9.50;4.73;;;7.10;99.90;;;7.85;100.00;98745.78;5068507;28;20448;-80
2021/05/28 04:36:51;;;;;;;9.77;4.20;;;7.10;99.90;;;7.84;100.00;98749.38;5071349;28;20440;-79
2021/05/28 04:39:19;;;;;;;5.43;4.50;;;7.00;99.90;;;7.83;100.00;98758.16;5071713;28;20554;-80
2021/05/28 04:41:47;;;;;;;6.37;4.57;;;7.00;99.90;;;7.91;100.00;98755.63;5069445;28;20445;-80
2021/05/28 04:44:15;;;;;;;9.00;5.20;;;7.10;99.90;;;7.97;100.00;98755.81;5071638;28;20452;-80
2021/05/28 04:46:44;;;;;;;11.90;4.20;;;7.10;99.90;;;8.05;100.00;98752.47;5069013;28;20440;-79
2021/05/28 04:49:12;;;;;;;10.70;4.33;;;7.20;99.90;;;8.03;100.00;98765.63;5071532;28;20444;-80
2021/05/28 04:51:40;;;;;;;6.80;4.63;;;7.20;99.90;;;8.00;100.00;98765.94;5070293;28;20456;-80
2021/05/28 04:54:09;;;;;;;6.73;3.83;;;7.10;99.90;;;7.91;100.00;98768.63;5067380;28;20477;-80
2021/05/28 04:56:37;;;;;;;7.23;4.30;;;7.10;99.90;;;7.91;100.00;98779.06;5068963;28;20891;-80
2021/05/28 04:59:05;;;;;;;7.90;4.87;;;7.00;99.90;;;7.99;100.00;98768.66;5071292;28;20967;-80
2021/05/28 05:01:33;;;;;;;9.33;4.63;;;7.10;99.90;;;8.09;100.00;98774.59;5060732;28;20499;-81
2021/05/28 05:04:02;;;;;;;10.73;4.17;;;7.40;99.90;;;8.13;100.00;98775.94;5063374;28;20457;-80
2021/05/28 05:06:31;;;;;;;13.60;4.60;;;7.40;99.90;;;8.17;100.00;98776.44;5070488;28;20813;-80
2021/05/28 05:08:59;;;;;;;12.57;4.50;;;7.50;99.90;;;8.22;100.00;98784.63;5062546;28;21015;-80
2021/05/28 05:11:27;;;;;;;10.03;5.13;;;7.70;99.90;;;8.24;100.00;98777.47;5060890;28;20452;-80
2021/05/28 05:13:56;;;;;;;6.53;4.70;;;7.70;99.90;;;8.24;100.00;98783.50;5058010;28;20500;-81
2021/05/28 05:16:25;;;;;;;8.03;4.90;;;7.70;99.90;;;8.21;100.00;98783.81;5061807;28;20945;-80
2021/05/28 05:19:12;;;;;;;8.30;4.90;;;7.70;99.90;;;8.26;100.00;98786.75;5070423;28;20498;-80
2021/05/28 05:21:40;;;;;;;8.50;5.07;;;7.80;99.90;;;8.32;100.00;98796.63;5067973;28;20457;-80
2021/05/28 05:24:10;;;;;;;6.57;4.43;;;7.80;99.90;;;8.23;100.00;98791.44;5069110;28;20437;-80
2021/05/28 05:26:38;;;;;;;8.07;3.80;;;7.80;99.90;;;8.27;100.00;98796.22;5068947;28;20452;-80
2021/05/28 05:29:09;;;;;;;7.53;4.57;;;7.90;99.90;;;8.26;100.00;98780.75;5067499;28;20449;-80
2021/05/28 05:31:39;;;;;;;7.97;4.30;;;7.90;99.90;;;8.30;100.00;98777.69;5070602;28;20455;-80
2021/05/28 05:34:08;;;;;;;10.13;4.50;;;7.80;99.90;;;8.35;100.00;98775.44;5070386;28;20752;-80
2021/05/28 05:36:39;;;;;;;7.17;4.53;;;7.90;99.90;;;8.34;100.00;98784.22;5070383;28;20860;-80
2021/05/28 05:39:08;;;;;;;5.10;4.03;;;7.90;99.90;;;8.34;100.00;98784.22;5067697;28;20494;-79
2021/05/28 05:41:36;;;;;;;7.10;4.67;;;7.90;99.90;;;8.36;100.00;98795.34;5070162;28;20945;-80
2021/05/28 05:44:05;;;;;;;5.63;4.50;;;7.90;99.90;;;8.42;100.00;98797.31;5069914;28;20446;-80
2021/05/28 05:46:34;;;;;;;6.53;4.17;;;7.80;99.90;;;8.47;100.00;98795.03;5070261;28;20444;-80
2021/05/28 05:49:02;;;;;;;7.87;4.63;;;7.90;99.90;;;8.54;100.00;98798.66;5070603;28;20510;-80
2021/05/28 05:51:31;;;;;;;5.93;4.60;;;8.00;99.90;;;8.60;100.00;98799.84;5068510;28;20984;-80
2021/05/28 05:54:00;;;;;;;11.00;3.80;;;8.10;99.90;;;8.65;100.00;98802.78;5066909;28;20510;-79
2021/05/28 05:56:28;;;;;;;5.20;3.40;;;8.20;99.90;;;8.67;100.00;98800.88;5069707;28;20490;-80
2021/05/28 05:58:56;;;;;;;3.50;3.20;;;8.20;99.90;;;8.69;100.00;98808.50;5070123;28;20448;-80
2021/05/28 06:01:24;;;;;;;5.30;3.80;;;8.20;99.90;;;8.73;100.00;98809.84;5063605;28;20586;-80
2021/05/28 06:03:53;;;;;;;5.10;3.70;;;8.30;99.90;;;8.76;100.00;98805.13;5068035;28;20949;-79
2021/05/28 06:06:21;;;;;;;4.70;3.37;;;8.30;99.90;;;8.84;100.00;98807.78;5070400;28;20437;-80
2021/05/28 06:08:51;;;;;;;4.67;4.00;;;8.30;99.90;;;8.94;100.00;98807.66;5070112;28;20498;-80
2021/05/28 06:11:20;;;;;;;8.87;3.57;;;8.30;99.90;;;9.03;100.00;98811.91;5069839;28;20448;-80
2021/05/28 06:13:49;;;;;;;6.00;3.97;;;8.40;99.90;;;9.13;100.00;98817.00;5069557;28;20451;-80
2021/05/28 06:16:17;;;;;;;6.00;3.80;;;8.50;99.90;;;9.18;100.00;98815.53;5069477;28;20480;-80
2021/05/28 06:18:45;;;;;;;7.50;4.70;;;8.50;99.90;;;9.27;100.00;98825.03;5069603;28;20514;-80
2021/05/28 06:21:13;;;;;;;5.53;3.77;;;8.70;99.90;;;9.32;100.00;98821.94;5067599;28;20921;-80
2021/05/28 06:23:41;;;;;;;9.10;4.67;;;8.70;99.90;;;9.38;100.00;98819.50;5066315;28;20505;-80
2021/05/28 06:26:09;;;;;;;7.47;4.47;;;8.70;99.90;;;9.46;100.00;98819.53;5069246;28;20467;-80
2021/05/28 06:28:38;;;;;;;14.90;4.80;;;8.80;99.90;;;9.55;100.00;98817.72;5069325;28;20444;-80
2021/05/28 06:31:06;;;;;;;15.53;6.40;;;8.80;99.90;;;9.64;100.00;98813.34;5064066;28;20444;-80
2021/05/28 06:33:34;;;;;;;10.67;6.23;;;9.00;99.90;;;9.72;100.00;98814.16;5067573;28;20447;-80
2021/05/28 06:36:02;;;;;;;13.57;8.10;;;9.10;99.90;;;9.81;100.00;98815.00;5069302;28;20527;-80
2021/05/28 06:38:30;;;;;;;21.37;7.23;;;9.20;99.90;;;9.87;100.00;98806.50;5069423;28;20837;-80
2021/05/28 06:40:58;;;;;;;15.70;9.03;;;9.30;99.90;;;9.99;100.00;98815.66;5067598;28;20945;-80
2021/05/28 06:43:26;;;;;;;28.23;9.67;;;9.40;99.90;;;10.08;100.00;98817.25;5064126;28;20517;-80
2021/05/28 06:45:55;;;;;;;15.70;8.90;;;9.50;99.90;;;10.15;100.00;98815.66;5068966;28;20445;-80
2021/05/28 06:48:23;;;;;;;13.40;8.87;;;9.60;99.90;;;10.23;100.00;98823.50;5064998;28;20449;-80
2021/05/28 06:50:51;;;;;;;13.50;8.47;;;9.70;99.90;;;10.29;100.00;98811.56;5068094;28;20460;-80
2021/05/28 06:53:19;;;;;;;18.03;8.77;;;9.70;99.90;;;10.37;100.00;98820.22;5068952;28;20513;-80
2021/05/28 06:55:47;;;;;;;14.93;8.07;;;9.80;99.90;;;10.46;100.00;98821.81;5068952;28;20522;-80
2021/05/28 06:58:16;;;;;;;12.77;8.73;;;9.90;99.90;;;10.55;100.00;98823.41;5068484;28;20830;-80
2021/05/28 07:00:45;;;;;;;16.50;8.03;;;10.10;99.90;;;10.65;100.00;98835.50;5061523;28;20491;-80
2021/05/28 07:03:14;;;;;;;15.20;7.83;;;10.10;99.90;;;10.71;100.00;98817.34;5063787;28;20437;-80
2021/05/28 07:05:42;;;;;;;10.90;7.07;;;10.30;99.90;;;10.77;100.00;98815.84;5068505;28;20448;-80
2021/05/28 07:08:10;;;;;;;15.30;7.33;;;10.30;99.90;;;10.86;100.00;98825.31;5067816;28;20441;-80
2021/05/28 07:10:38;;;;;;;14.63;7.10;;;10.40;99.90;;;10.93;100.00;98821.03;5066500;28;20440;-80
2021/05/28 07:13:06;;;;;;;10.83;6.17;;;10.40;99.90;;;11.01;100.00;98824.41;5068571;28;20448;-80
2021/05/28 07:15:36;;;;;;;10.90;6.83;;;10.60;99.90;;;11.04;100.00;98825.84;5068789;28;20539;-80
2021/05/28 07:18:05;;;;;;;18.27;7.13;;;10.60;99.90;;;11.10;100.00;98828.63;5068693;28;20445;-80
2021/05/28 07:20:33;;;;;;;13.83;6.53;;;10.70;99.90;;;11.17;100.00;98827.94;5067152;28;20972;-80
2021/05/28 07:23:02;;;;;;;8.97;6.67;;;10.70;99.90;;;11.24;100.00;98828.88;5066925;28;20448;-80
2021/05/28 07:25:30;;;;;;;10.30;5.37;;;10.80;99.90;;;11.32;100.00;98828.81;5063498;28;20858;-80
2021/05/28 07:27:58;;;;;;;6.40;5.40;;;10.80;99.90;;;11.39;100.00;98827.16;5062218;28;20436;-80
2021/05/28 07:30:26;;;;;;;8.13;5.10;;;10.90;99.90;;;11.45;100.00;98822.03;5067797;28;21180;-80
2021/05/28 07:32:54;;;;;;;9.77;5.33;;;11.00;99.90;;;11.52;100.00;98822.97;5068481;28;20441;-80
2021/05/28 07:35:22;;;;;;;9.93;5.80;;;11.10;99.90;;;11.60;100.00;98815.06;5067545;28;20445;-80
2021/05/28 07:37:51;;;;;;;9.07;5.30;;;11.20;99.90;;;11.68;100.00;98813.38;5068246;28;20485;-80
2021/05/28 07:40:21;;;;;;;13.40;4.63;;;11.20;99.90;;;11.76;100.00;98818.59;5067703;28;20523;-80
2021/05/28 07:42:49;;;;;;;6.30;4.80;;;11.30;99.90;;;11.80;100.00;98825.13;5066371;28;20933;-80
2021/05/28 07:45:17;;;;;;;10.03;6.57;;;11.30;99.90;;;11.84;100.00;98821.13;5068414;28;20545;-80
2021/05/28 07:47:46;;;;;;;10.90;5.50;;;11.40;99.90;;;11.89;100.00;98819.66;5063622;28;20456;-80
2021/05/28 07:50:15;;;;;;;8.43;5.00;;;11.40;99.90;;;11.96;100.00;98819.75;5068298;28;20475;-80
2021/05/28 07:52:43;;;;;;;8.13;5.17;;;11.50;99.90;;;12.00;100.00;98819.22;5067188;28;20436;-80
2021/05/28 07:55:13;;;;;;;6.70;5.37;;;11.50;99.90;;;12.08;100.00;98818.31;5062188;28;21022;-80
2021/05/28 07:57:42;;;;;;;7.93;5.80;;;11.60;99.90;;;12.16;100.00;98828.75;5062977;28;20445;-80
2021/05/28 08:00:13;;;;;;;8.10;5.33;;;11.70;99.90;;;12.21;100.00;98820.34;5067449;28;20495;-80
2021/05/28 08:02:46;;;;;;;13.10;5.57;;;11.80;99.90;;;12.26;100.00;98810.94;5067164;28;20452;-80
2021/05/28 08:05:15;;;;;;;10.90;5.80;;;11.80;99.90;;;12.32;100.00;98815.47;5071741;28;20859;-80
2021/05/28 08:07:43;;;;;;;8.10;4.87;;;11.90;99.90;;;12.38;100.00;98816.56;5072167;28;20432;-81
2021/05/28 08:10:13;;;;;;;7.67;4.57;;;11.90;99.90;;;12.41;100.00;98811.78;5072213;28;20586;-80
2021/05/28 08:12:44;;;;;;;10.77;4.63;;;12.00;99.90;;;12.46;100.00;98814.66;5070866;28;20543;-81
2021/05/28 08:15:12;;;;;;;9.33;5.73;;;12.10;99.90;;;12.52;100.00;98821.03;5068731;28;20463;-80
2021/05/28 08:17:40;;;;;;;9.47;4.43;;;12.10;99.90;;;12.51;100.00;98817.59;5072188;28;20497;-80
2021/05/28 08:20:10;;;;;;;8.57;4.67;;;12.00;99.90;;;12.55;100.00;98811.00;5071951;28;20488;-80
2021/05/28 08:22:39;;;;;;;9.60;5.20;;;12.10;99.90;;;12.63;100.00;98814.53;5072169;28;20440;-80
2021/05/28 08:25:08;;;;;;;5.50;4.30;;;12.10;99.90;;;12.68;100.00;98814.78;5072196;28;20432;-80
2021/05/28 08:27:37;;;;;;;12.00;4.60;;;12.10;99.90;;;12.73;100.00;98807.19;5065051;28;20915;-80
2021/05/28 08:30:08;;;;;;;10.90;5.60;;;12.20;99.90;;;12.80;100.00;98818.59;5066542;28;20451;-80
2021/05/28 08:32:36;;;;;;;8.90;4.30;;;12.30;99.90;;;12.82;100.00;98806.91;5070582;28;20440;-80
2021/05/28 08:35:05;;;;;;;7.77;5.03;;;12.30;99.90;;;12.82;100.00;98811.34;5071516;28;20445;-80
2021/05/28 08:37:34;;;;;;;10.93;4.67;;;12.20;99.90;;;12.88;100.00;98818.47;5071600;28;20509;-80
2021/05/28 08:40:06;;;;;;;7.00;4.53;;;12.30;99.90;;;12.95;100.00;98822.00;5071238;28;20483;-80
2021/05/28 08:42:34;;;;;;;8.80;4.03;;;12.40;99.90;;;13.03;100.00;98819.28;5071822;28;20441;-80
2021/05/28 08:45:06;;;;;;;12.07;4.77;;;12.40;99.90;;;13.12;100.00;98823.44;5071052;28;20936;-80
2021/05/28 08:47:34;;;;;;;9.10;3.80;;;12.60;99.90;;;13.20;100.00;98815.47;5070637;28;20441;-80
2021/05/28 08:50:04;;;;;;;8.37;4.17;;;12.70;99.90;;;13.26;100.00;98819.97;5070956;28;20466;-80
2021/05/28 08:52:32;;;;;;;7.37;4.23;;;12.70;99.90;;;13.32;100.00;98814.00;5071588;28;20478;-80
2021/05/28 08:55:01;;;;;;;6.60;3.53;;;12.90;99.90;;;13.37;100.00;98816.88;5070705;28;20898;-80
2021/05/28 08:57:28;;;;;;;6.10;4.20;;;13.00;99.90;;;13.41;100.00;98806.81;5064890;28;20444;-80
2021/05/28 08:59:56;;;;;;;6.93;4.10;;;13.00;99.90;;;13.43;100.00;98815.34;5071270;28;20978;-80
2021/05/28 09:02:32;;;;;;;6.77;3.17;;;12.90;99.90;;;13.46;100.00;98805.28;5069628;28;20545;-80
2021/05/28 09:05:14;;;;;;;5.17;3.77;;;12.90;99.90;;;13.51;100.00;98812.56;5064702;28;21183;-80
2021/05/28 09:07:54;;;;;;;6.10;3.57;;;12.90;99.90;;;13.52;100.00;98809.78;5066615;28;20488;-80
2021/05/28 09:10:36;;;;;;;7.90;3.43;;;12.90;99.90;;;13.47;100.00;98808.69;5071284;28;20489;-80
2021/05/28 09:13:14;;;;;;;6.93;4.00;;;12.90;99.90;;;13.53;100.00;98808.78;5067402;28;20797;-80
2021/05/28 09:15:45;;;;;;;3.70;3.20;;;13.00;99.90;;;13.63;100.00;98805.03;5069490;28;20452;-81
2021/05/28 09:18:15;;;;;;;4.83;3.13;;;13.20;99.90;;;13.69;100.00;98805.09;5070058;28;20482;-80
2021/05/28 09:20:54;;;;;;;7.00;3.50;;;13.30;99.90;;;13.73;100.00;98800.25;5064944;28;20992;-80
2021/05/28 09:23:23;;;;;;;6.90;3.50;;;13.30;99.90;;;13.81;100.00;98802.78;5070908;28;20436;-80
2021/05/28 09:25:54;;;;;;;5.30;3.10;;;13.40;99.90;;;13.87;100.00;98796.75;5070425;28;20449;-80
2021/05/28 09:28:23;;;;;;;6.37;3.10;;;13.50;99.90;;;13.92;96.13;98807.50;5068906;28;20464;-80
2021/05/28 09:31:01;;;;;;;6.33;2.97;;;13.60;99.90;;;13.94;95.82;98797.63;5070357;28;20911;-81
2021/05/28 09:33:35;;;;;;;5.90;3.47;;;13.60;99.90;;;14.01;96.30;98795.88;5070812;28;20442;-80
2021/05/28 09:36:22;;;;;;;3.90;2.80;;;13.60;99.90;;;14.08;96.47;98800.19;5066011;28;20874;-79
2021/05/28 09:39:04;;;;;;;3.40;2.73;;;13.70;99.90;;;14.18;95.11;98801.66;5067538;28;20451;-80
2021/05/28 09:41:49;;;;;;;12.83;3.87;;;13.80;99.90;;;14.19;93.54;98785.69;5067059;28;20554;-79
2021/05/28 09:44:20;;;;;;;5.50;2.90;;;13.90;99.90;;;14.26;95.28;98801.53;5066010;28;20432;-80
2021/05/28 09:47:06;;;;;;;15.27;3.50;;;13.80;99.90;;;14.31;94.76;98799.94;5069485;28;20441;-80
2021/05/28 09:49:38;;;;;;;3.60;3.10;;;13.90;99.90;;;14.35;94.29;98795.13;5070167;28;20452;-80
2021/05/28 09:52:13;;;;;;;4.70;3.17;;;13.90;99.90;;;14.30;93.15;98800.94;5062513;28;20448;-80
2021/05/28 09:54:55;;;;;;;7.07;3.20;;;13.80;99.90;;;14.32;93.71;98792.84;5070344;28;20465;-80
2021/05/28 09:57:32;;;;;;;7.47;3.80;;;13.80;99.90;;;14.36;93.37;98792.31;5067348;28;20452;-80
2021/05/28 10:00:03;;;;;;;3.37;2.80;;;13.90;99.90;;;14.36;91.48;98794.94;5068489;28;20540;-80
2021/05/28 10:02:34;;;;;;;6.03;2.83;;;13.80;99.90;;;14.40;91.77;98793.56;5069141;28;20492;-79
2021/05/28 10:05:05;;;;;;;8.50;2.73;;;13.90;99.90;;;14.40;92.42;98796.19;5065658;28;20475;-80
2021/05/28 10:07:37;;;;;;;3.27;2.77;;;13.90;99.90;;;14.43;90.93;98805.50;5069650;28;20497;-80
2021/05/28 10:10:07;;;;;;;5.60;2.87;;;13.90;99.90;;;14.50;90.98;98796.66;5069919;28;20445;-80
2021/05/28 10:12:35;;;;;;;6.80;3.17;;;14.00;99.90;;;14.54;91.77;98797.09;5069759;28;21302;-79
2021/05/28 10:15:07;;;;;;;4.87;2.60;;;14.00;99.90;;;14.58;92.56;98804.38;5069678;28;20478;-80
2021/05/28 10:17:36;;;;;;;4.10;3.20;;;14.00;99.90;;;14.66;92.51;98797.34;5063804;28;20452;-80
2021/05/28 10:20:07;;;;;;;3.40;2.67;;;14.10;99.90;;;14.68;93.16;98797.97;5065390;28;20471;-79
2021/05/28 10:22:35;;;;;;;9.60;3.33;;;14.10;99.90;;;14.75;94.94;98804.88;5066331;28;20499;-79
2021/05/28 10:25:06;;;;;;;4.40;2.70;;;14.20;99.90;;;14.82;91.30;98803.09;5069768;28;20441;-80
2021/05/28 10:27:34;;;;;;;4.27;2.70;;;14.30;99.90;;;14.87;89.34;98794.63;5062800;28;20445;-80
2021/05/28 10:30:15;;;;;;;4.33;2.90;;;14.40;99.90;;;14.94;86.04;98792.81;5069403;28;20977;-80